Terminal Aerodrome Forecast
Issued by NWS

Home | Current Version | Previous Version | Text Only | Print | Product List | Glossary On
Versions: 1 2 3 4 5 6 7 8 9 10 11 12 13 14 15 16 17 18 19 20 21 22 23 24 25
000
FTUS41 KILN 221700
TAFLCK
TAF
KLCK 221738Z 2218/2318 20005KT P6SM SCT015 BKN100
      TEMPO 2218/2220 BKN015
     FM222000 24006KT P6SM SCT020 BKN250
     FM230000 32003KT P6SM SCT020 BKN250
     FM230600 VRB03KT 4SM BR SCT010
      TEMPO 2309/2312 2SM BR
     FM231300 05004KT P6SM SCT025=

USA.gov is the U.S. government's official web portal to all federal, state and local government web resources and services.